Main page
METAR-TAF:

METAR-TAF

Airports :

Sanford Seacoast Regional Airport

Sanford, Maine, United States

latitude: 43-24N, longitude: 070-43W, elevation: 243 ft

Current weather observation

The report was made 50 minutes ago, at 14:56 UTC
Wind 8 mph from the South/Southwest
Temperature 72°F
Humidity 78%
Pressure 29.73 in. Hg
Visibility: 8 miles
Clear sky

METAR: KSFM 201456Z AUTO 21007KT 8SM CLR 22/18 A2973 RMK AO2 SLP071 6//// T02170178 56021 PNO $

Time: 11:46 (15:46 UTC)


TAF: missing

Weather observations and forecasts of more than 4000 airports (METAR and TAF reports).

The available stations are represented by yellow and red dots on the map.

Hover mouse over dot to see the name of the station.

Then click to see weather observations and forecasts.

To change the map : click on the green buttons with a black cross to zoom in, on the green button with a dash to zoom out, or on the green arrows for adjacent maps.


METAR-TAF: